Aérodrome :
LOGIN :

S'inscrire | Disclaimer

   EN    FR    IT 

 










Légende :    VFR   VFR Marginal   IFR   IFR Intensif   IFR Très Intensif
Visi : 
Plafond : 
>= 8 km
>= 3000ft
5 à 8 km
1000 à 3000 ft
1500m à 5 km
500 à 1000 ft
800 à 1500m
200 à 500 ft
< 800m
< 200 ft
Symboles :   Orages  Brouillard  Fortes neiges  Fortes précipitations  Vent > 20 kt
SIGMETs :   Divers  Orages  Givrage  Turbulence  Onde Orograph.  Cendres Volcan.






- Altitude de l'aérodrome : 11 ft
- Code IATA : SXL


EISG - Sligo

DERNIER METAR :
  • 101230Z 15006KT 120V180 CAVOK 16/11 Q1020

METARs EXPIRÉS :
  • 101200Z 16005KT 120V250 CAVOK 16/10 Q1020
  • 101130Z 18004KT 130V240 CAVOK 15/10 Q1021
  • 101100Z 17005KT 120V250 CAVOK 15/10 Q1021
  • 101030Z 16005KT 110V220 CAVOK 13/10 Q1021

TAF TAF EISG
Valide du 10 à 12h jusqu'au 10 à 21h UTC


101100Z 1012/1021 16006KT 9999 FEW035
BECMG 1013/1015 VRB03KT
TEMPO 1013/1021 -SHRA FEW020CB



MET'MAP, la Météo Aéronautique d'un coup d'oeil ! - Copyright ORBIFLY Décembre 2007 - Disclaimer

ORBIFLY MET'MAP TEAM :

Programmation & Développement : Alexandra Zaïnal
Sur une idée originale de : Baudouin d'Aumeries
Assistance à la programmation : Marc-Olivier Méhu
Soutien technique & logistique : Manuel Goepfert

Contact : metmap@orbifly.com




SOURCES & CREDITS :

   NOAA